sensor_id;sensor_type;location;lat;lon;timestamp;P1;durP1;ratioP1;P2;durP2;ratioP2
72125;SDS011;59999;51.676;22.650;2023-12-28T00:01:23;21.60;;;7.27;;
72125;SDS011;59999;51.676;22.650;2023-12-28T00:03:49;25.42;;;7.93;;
72125;SDS011;59999;51.676;22.650;2023-12-28T00:06:15;26.20;;;7.97;;
72125;SDS011;59999;51.676;22.650;2023-12-28T00:08:42;26.00;;;8.00;;
72125;SDS011;59999;51.676;22.650;2023-12-28T00:11:08;23.38;;;8.23;;
72125;SDS011;59999;51.676;22.650;2023-12-28T00:13:34;25.07;;;7.10;;
72125;SDS011;59999;51.676;22.650;2023-12-28T00:16:00;21.92;;;7.18;;
72125;SDS011;59999;51.676;22.650;2023-12-28T00:18:26;22.37;;;7.17;;
72125;SDS011;59999;51.676;22.650;2023-12-28T00:20:52;20.77;;;7.78;;
72125;SDS011;59999;51.676;22.650;2023-12-28T00:23:18;23.75;;;7.47;;
72125;SDS011;59999;51.676;22.650;2023-12-28T00:25:45;21.80;;;7.03;;
72125;SDS011;59999;51.676;22.650;2023-12-28T00:28:12;21.05;;;6.90;;
72125;SDS011;59999;51.676;22.650;2023-12-28T00:30:37;18.65;;;7.13;;
72125;SDS011;59999;51.676;22.650;2023-12-28T00:33:03;20.23;;;6.97;;
72125;SDS011;59999;51.676;22.650;2023-12-28T00:35:29;23.13;;;7.47;;
72125;SDS011;59999;51.676;22.650;2023-12-28T00:37:55;19.80;;;7.35;;
72125;SDS011;59999;51.676;22.650;2023-12-28T00:40:21;29.33;;;7.20;;
72125;SDS011;59999;51.676;22.650;2023-12-28T00:42:47;22.20;;;7.03;;
72125;SDS011;59999;51.676;22.650;2023-12-28T00:45:13;22.50;;;7.25;;
72125;SDS011;59999;51.676;22.650;2023-12-28T00:47:39;20.57;;;7.27;;
72125;SDS011;59999;51.676;22.650;2023-12-28T00:50:05;23.35;;;7.25;;
72125;SDS011;59999;51.676;22.650;2023-12-28T00:52:31;19.98;;;7.20;;
72125;SDS011;59999;51.676;22.650;2023-12-28T00:54:57;20.27;;;6.93;;
72125;SDS011;59999;51.676;22.650;2023-12-28T00:57:23;24.27;;;8.32;;
72125;SDS011;59999;51.676;22.650;2023-12-28T00:59:48;22.77;;;7.78;;
72125;SDS011;59999;51.676;22.650;2023-12-28T01:02:14;25.53;;;7.93;;
72125;SDS011;59999;51.676;22.650;2023-12-28T01:04:40;19.75;;;7.03;;
72125;SDS011;59999;51.676;22.650;2023-12-28T01:07:06;23.57;;;7.97;;
72125;SDS011;59999;51.676;22.650;2023-12-28T01:09:32;24.38;;;8.13;;
72125;SDS011;59999;51.676;22.650;2023-12-28T01:11:57;30.10;;;8.17;;
72125;SDS011;59999;51.676;22.650;2023-12-28T01:14:24;23.95;;;7.65;;
72125;SDS011;59999;51.676;22.650;2023-12-28T01:16:50;23.83;;;8.43;;
72125;SDS011;59999;51.676;22.650;2023-12-28T01:19:16;22.80;;;8.02;;
72125;SDS011;59999;51.676;22.650;2023-12-28T01:21:41;25.75;;;8.25;;
72125;SDS011;59999;51.676;22.650;2023-12-28T01:24:07;23.37;;;7.93;;
72125;SDS011;59999;51.676;22.650;2023-12-28T01:26:33;27.55;;;7.90;;
72125;SDS011;59999;51.676;22.650;2023-12-28T01:29:00;23.57;;;6.70;;
72125;SDS011;59999;51.676;22.650;2023-12-28T01:31:28;24.75;;;7.43;;
72125;SDS011;59999;51.676;22.650;2023-12-28T01:33:55;20.83;;;7.10;;
72125;SDS011;59999;51.676;22.650;2023-12-28T01:36:21;20.27;;;6.87;;
72125;SDS011;59999;51.676;22.650;2023-12-28T01:38:48;22.65;;;7.28;;
72125;SDS011;59999;51.676;22.650;2023-12-28T01:41:14;26.10;;;7.97;;
72125;SDS011;59999;51.676;22.650;2023-12-28T01:43:41;26.20;;;8.52;;
72125;SDS011;59999;51.676;22.650;2023-12-28T01:46:09;26.60;;;8.77;;
72125;SDS011;59999;51.676;22.650;2023-12-28T01:48:39;21.87;;;7.63;;
72125;SDS011;59999;51.676;22.650;2023-12-28T01:51:06;23.20;;;7.38;;
72125;SDS011;59999;51.676;22.650;2023-12-28T01:53:32;21.63;;;7.55;;
72125;SDS011;59999;51.676;22.650;2023-12-28T01:55:58;21.43;;;6.70;;
72125;SDS011;59999;51.676;22.650;2023-12-28T01:58:25;23.08;;;7.65;;
72125;SDS011;59999;51.676;22.650;2023-12-28T02:00:55;21.70;;;6.65;;
72125;SDS011;59999;51.676;22.650;2023-12-28T02:03:21;19.58;;;7.20;;
72125;SDS011;59999;51.676;22.650;2023-12-28T02:05:47;26.10;;;8.30;;
72125;SDS011;59999;51.676;22.650;2023-12-28T02:08:13;23.47;;;7.37;;
72125;SDS011;59999;51.676;22.650;2023-12-28T02:10:39;23.45;;;7.57;;
72125;SDS011;59999;51.676;22.650;2023-12-28T02:13:05;22.13;;;7.47;;
72125;SDS011;59999;51.676;22.650;2023-12-28T02:15:31;23.10;;;8.30;;
72125;SDS011;59999;51.676;22.650;2023-12-28T02:20:39;20.60;;;7.38;;
72125;SDS011;59999;51.676;22.650;2023-12-28T02:23:05;29.52;;;8.10;;
72125;SDS011;59999;51.676;22.650;2023-12-28T02:25:31;26.67;;;9.15;;
72125;SDS011;59999;51.676;22.650;2023-12-28T02:27:57;28.85;;;8.93;;
72125;SDS011;59999;51.676;22.650;2023-12-28T02:30:23;27.30;;;9.00;;
72125;SDS011;59999;51.676;22.650;2023-12-28T02:32:59;23.25;;;8.52;;
72125;SDS011;59999;51.676;22.650;2023-12-28T02:35:29;22.98;;;7.90;;
72125;SDS011;59999;51.676;22.650;2023-12-28T02:37:59;27.88;;;8.30;;
72125;SDS011;59999;51.676;22.650;2023-12-28T02:40:31;24.33;;;8.13;;
72125;SDS011;59999;51.676;22.650;2023-12-28T02:43:06;27.03;;;8.37;;
72125;SDS011;59999;51.676;22.650;2023-12-28T02:45:32;26.17;;;8.77;;
72125;SDS011;59999;51.676;22.650;2023-12-28T02:47:58;22.02;;;7.43;;
72125;SDS011;59999;51.676;22.650;2023-12-28T02:50:23;28.83;;;8.90;;
72125;SDS011;59999;51.676;22.650;2023-12-28T02:52:49;26.90;;;8.43;;
72125;SDS011;59999;51.676;22.650;2023-12-28T02:55:15;21.23;;;7.47;;
72125;SDS011;59999;51.676;22.650;2023-12-28T02:57:41;28.13;;;8.13;;
72125;SDS011;59999;51.676;22.650;2023-12-28T03:00:08;25.40;;;8.25;;
72125;SDS011;59999;51.676;22.650;2023-12-28T03:02:35;33.17;;;9.07;;
72125;SDS011;59999;51.676;22.650;2023-12-28T03:05:03;26.13;;;8.33;;
72125;SDS011;59999;51.676;22.650;2023-12-28T03:07:30;30.20;;;9.80;;
72125;SDS011;59999;51.676;22.650;2023-12-28T03:09:55;27.83;;;9.13;;
72125;SDS011;59999;51.676;22.650;2023-12-28T03:12:21;33.17;;;9.35;;
72125;SDS011;59999;51.676;22.650;2023-12-28T03:14:47;31.40;;;9.63;;
72125;SDS011;59999;51.676;22.650;2023-12-28T03:17:13;28.80;;;8.87;;
72125;SDS011;59999;51.676;22.650;2023-12-28T03:19:39;30.30;;;9.60;;
72125;SDS011;59999;51.676;22.650;2023-12-28T03:22:05;30.45;;;9.40;;
72125;SDS011;59999;51.676;22.650;2023-12-28T03:24:31;27.10;;;8.67;;
72125;SDS011;59999;51.676;22.650;2023-12-28T03:26:57;29.30;;;9.07;;
72125;SDS011;59999;51.676;22.650;2023-12-28T03:29:23;33.37;;;9.47;;
72125;SDS011;59999;51.676;22.650;2023-12-28T03:31:49;24.75;;;8.70;;
72125;SDS011;59999;51.676;22.650;2023-12-28T03:34:15;24.33;;;8.10;;
72125;SDS011;59999;51.676;22.650;2023-12-28T03:36:41;26.23;;;8.05;;
72125;SDS011;59999;51.676;22.650;2023-12-28T03:39:07;26.15;;;9.15;;
72125;SDS011;59999;51.676;22.650;2023-12-28T03:41:34;27.97;;;8.70;;
72125;SDS011;59999;51.676;22.650;2023-12-28T03:43:59;30.40;;;9.77;;
72125;SDS011;59999;51.676;22.650;2023-12-28T03:46:26;21.65;;;7.78;;
72125;SDS011;59999;51.676;22.650;2023-12-28T03:48:52;23.03;;;7.43;;
72125;SDS011;59999;51.676;22.650;2023-12-28T03:51:18;25.33;;;7.65;;
72125;SDS011;59999;51.676;22.650;2023-12-28T03:53:44;22.75;;;7.18;;
72125;SDS011;59999;51.676;22.650;2023-12-28T03:56:23;23.10;;;7.43;;
72125;SDS011;59999;51.676;22.650;2023-12-28T03:58:50;22.77;;;7.28;;
72125;SDS011;59999;51.676;22.650;2023-12-28T04:01:20;27.25;;;8.20;;
72125;SDS011;59999;51.676;22.650;2023-12-28T04:03:46;21.02;;;7.15;;
72125;SDS011;59999;51.676;22.650;2023-12-28T04:06:13;27.87;;;7.80;;
72125;SDS011;59999;51.676;22.650;2023-12-28T04:08:40;22.63;;;6.88;;
72125;SDS011;59999;51.676;22.650;2023-12-28T04:11:06;22.55;;;7.93;;
72125;SDS011;59999;51.676;22.650;2023-12-28T04:13:32;20.77;;;7.15;;
72125;SDS011;59999;51.676;22.650;2023-12-28T04:15:58;27.00;;;8.00;;
72125;SDS011;59999;51.676;22.650;2023-12-28T04:18:24;28.13;;;8.13;;
72125;SDS011;59999;51.676;22.650;2023-12-28T04:20:50;22.23;;;8.18;;
72125;SDS011;59999;51.676;22.650;2023-12-28T04:23:15;25.57;;;9.30;;
72125;SDS011;59999;51.676;22.650;2023-12-28T04:25:41;27.35;;;8.35;;
72125;SDS011;59999;51.676;22.650;2023-12-28T04:28:07;26.77;;;8.67;;
72125;SDS011;59999;51.676;22.650;2023-12-28T04:30:33;24.42;;;7.60;;
72125;SDS011;59999;51.676;22.650;2023-12-28T04:33:02;19.50;;;6.90;;
72125;SDS011;59999;51.676;22.650;2023-12-28T04:35:29;22.37;;;7.40;;
72125;SDS011;59999;51.676;22.650;2023-12-28T04:37:55;19.13;;;6.88;;
72125;SDS011;59999;51.676;22.650;2023-12-28T04:40:21;21.00;;;6.38;;
72125;SDS011;59999;51.676;22.650;2023-12-28T04:42:47;17.35;;;5.85;;
72125;SDS011;59999;51.676;22.650;2023-12-28T04:45:13;19.20;;;6.07;;
72125;SDS011;59999;51.676;22.650;2023-12-28T04:47:39;20.20;;;6.07;;
72125;SDS011;59999;51.676;22.650;2023-12-28T04:50:06;20.60;;;5.90;;
72125;SDS011;59999;51.676;22.650;2023-12-28T04:52:32;18.83;;;5.47;;
72125;SDS011;59999;51.676;22.650;2023-12-28T04:54:58;17.98;;;5.80;;
72125;SDS011;59999;51.676;22.650;2023-12-28T04:57:24;20.33;;;5.88;;
72125;SDS011;59999;51.676;22.650;2023-12-28T04:59:51;17.93;;;5.77;;
72125;SDS011;59999;51.676;22.650;2023-12-28T05:02:17;21.52;;;6.00;;
72125;SDS011;59999;51.676;22.650;2023-12-28T05:04:43;19.55;;;5.68;;
72125;SDS011;59999;51.676;22.650;2023-12-28T05:07:09;18.08;;;6.38;;
72125;SDS011;59999;51.676;22.650;2023-12-28T05:09:35;18.50;;;5.53;;
72125;SDS011;59999;51.676;22.650;2023-12-28T05:12:01;19.92;;;5.80;;
72125;SDS011;59999;51.676;22.650;2023-12-28T05:14:28;21.48;;;5.68;;
72125;SDS011;59999;51.676;22.650;2023-12-28T05:16:54;17.67;;;5.32;;
72125;SDS011;59999;51.676;22.650;2023-12-28T05:19:19;18.07;;;5.40;;
72125;SDS011;59999;51.676;22.650;2023-12-28T05:21:45;20.10;;;6.18;;
72125;SDS011;59999;51.676;22.650;2023-12-28T05:24:12;17.98;;;5.88;;
72125;SDS011;59999;51.676;22.650;2023-12-28T05:26:38;21.73;;;6.43;;
72125;SDS011;59999;51.676;22.650;2023-12-28T05:29:04;24.63;;;6.78;;
72125;SDS011;59999;51.676;22.650;2023-12-28T05:31:30;19.00;;;5.93;;
72125;SDS011;59999;51.676;22.650;2023-12-28T05:33:56;18.83;;;5.87;;
72125;SDS011;59999;51.676;22.650;2023-12-28T05:36:23;20.35;;;6.25;;
72125;SDS011;59999;51.676;22.650;2023-12-28T05:38:50;19.48;;;6.25;;
72125;SDS011;59999;51.676;22.650;2023-12-28T05:41:16;17.13;;;6.00;;
72125;SDS011;59999;51.676;22.650;2023-12-28T05:43:42;17.20;;;6.07;;
72125;SDS011;59999;51.676;22.650;2023-12-28T05:46:07;19.52;;;7.13;;
72125;SDS011;59999;51.676;22.650;2023-12-28T05:48:33;20.08;;;6.88;;
72125;SDS011;59999;51.676;22.650;2023-12-28T05:50:59;22.87;;;7.10;;
72125;SDS011;59999;51.676;22.650;2023-12-28T05:53:26;19.50;;;6.50;;
72125;SDS011;59999;51.676;22.650;2023-12-28T05:55:53;23.13;;;7.10;;
72125;SDS011;59999;51.676;22.650;2023-12-28T05:58:19;21.90;;;7.30;;
72125;SDS011;59999;51.676;22.650;2023-12-28T06:00:45;18.48;;;6.68;;
72125;SDS011;59999;51.676;22.650;2023-12-28T06:03:13;20.83;;;7.47;;
72125;SDS011;59999;51.676;22.650;2023-12-28T06:05:40;19.77;;;6.90;;
72125;SDS011;59999;51.676;22.650;2023-12-28T06:08:06;21.00;;;7.03;;
72125;SDS011;59999;51.676;22.650;2023-12-28T06:10:31;21.83;;;7.07;;
72125;SDS011;59999;51.676;22.650;2023-12-28T06:12:58;19.87;;;7.00;;
72125;SDS011;59999;51.676;22.650;2023-12-28T06:15:23;19.88;;;7.18;;
72125;SDS011;59999;51.676;22.650;2023-12-28T06:17:49;17.73;;;6.72;;
72125;SDS011;59999;51.676;22.650;2023-12-28T06:20:15;20.40;;;6.95;;
72125;SDS011;59999;51.676;22.650;2023-12-28T06:22:41;21.98;;;7.50;;
72125;SDS011;59999;51.676;22.650;2023-12-28T06:25:06;21.63;;;7.10;;
72125;SDS011;59999;51.676;22.650;2023-12-28T06:27:32;24.13;;;8.05;;
72125;SDS011;59999;51.676;22.650;2023-12-28T06:29:58;18.75;;;7.10;;
72125;SDS011;59999;51.676;22.650;2023-12-28T06:32:24;20.35;;;6.60;;
72125;SDS011;59999;51.676;22.650;2023-12-28T06:34:50;20.07;;;6.83;;
72125;SDS011;59999;51.676;22.650;2023-12-28T06:37:15;24.30;;;7.28;;
72125;SDS011;59999;51.676;22.650;2023-12-28T06:39:41;21.88;;;7.55;;
72125;SDS011;59999;51.676;22.650;2023-12-28T06:42:07;20.90;;;6.73;;
72125;SDS011;59999;51.676;22.650;2023-12-28T06:44:33;23.67;;;7.65;;
72125;SDS011;59999;51.676;22.650;2023-12-28T06:46:59;21.80;;;8.05;;
72125;SDS011;59999;51.676;22.650;2023-12-28T06:49:25;23.83;;;8.43;;
72125;SDS011;59999;51.676;22.650;2023-12-28T06:51:51;21.58;;;7.22;;
72125;SDS011;59999;51.676;22.650;2023-12-28T06:54:17;24.27;;;8.07;;
72125;SDS011;59999;51.676;22.650;2023-12-28T06:56:43;25.42;;;7.93;;
72125;SDS011;59999;51.676;22.650;2023-12-28T06:59:09;21.23;;;7.90;;
72125;SDS011;59999;51.676;22.650;2023-12-28T07:01:38;22.55;;;7.30;;
72125;SDS011;59999;51.676;22.650;2023-12-28T07:04:04;20.13;;;7.30;;
72125;SDS011;59999;51.676;22.650;2023-12-28T07:06:30;19.83;;;7.72;;
72125;SDS011;59999;51.676;22.650;2023-12-28T07:08:56;20.80;;;7.20;;
72125;SDS011;59999;51.676;22.650;2023-12-28T07:11:22;24.33;;;9.30;;
72125;SDS011;59999;51.676;22.650;2023-12-28T07:13:48;26.33;;;8.30;;
72125;SDS011;59999;51.676;22.650;2023-12-28T07:16:14;23.27;;;7.40;;
72125;SDS011;59999;51.676;22.650;2023-12-28T07:18:41;25.05;;;8.10;;
72125;SDS011;59999;51.676;22.650;2023-12-28T07:21:07;25.10;;;7.63;;
72125;SDS011;59999;51.676;22.650;2023-12-28T07:23:36;26.25;;;8.95;;
72125;SDS011;59999;51.676;22.650;2023-12-28T07:26:03;20.67;;;7.97;;
72125;SDS011;59999;51.676;22.650;2023-12-28T07:28:29;23.83;;;8.70;;
72125;SDS011;59999;51.676;22.650;2023-12-28T07:30:54;28.10;;;8.70;;
72125;SDS011;59999;51.676;22.650;2023-12-28T07:33:20;21.37;;;8.23;;
72125;SDS011;59999;51.676;22.650;2023-12-28T07:35:46;23.15;;;9.20;;
72125;SDS011;59999;51.676;22.650;2023-12-28T07:38:12;22.48;;;9.05;;
72125;SDS011;59999;51.676;22.650;2023-12-28T07:40:38;21.87;;;8.07;;
72125;SDS011;59999;51.676;22.650;2023-12-28T07:43:04;24.50;;;9.05;;
72125;SDS011;59999;51.676;22.650;2023-12-28T07:45:30;21.55;;;8.57;;
72125;SDS011;59999;51.676;22.650;2023-12-28T07:47:56;22.67;;;7.95;;
72125;SDS011;59999;51.676;22.650;2023-12-28T07:50:22;21.80;;;8.32;;
72125;SDS011;59999;51.676;22.650;2023-12-28T07:52:48;26.33;;;9.57;;
72125;SDS011;59999;51.676;22.650;2023-12-28T07:55:14;26.23;;;10.07;;
72125;SDS011;59999;51.676;22.650;2023-12-28T07:57:40;27.48;;;10.38;;
72125;SDS011;59999;51.676;22.650;2023-12-28T08:00:06;32.63;;;12.13;;
72125;SDS011;59999;51.676;22.650;2023-12-28T08:02:33;30.08;;;10.77;;
72125;SDS011;59999;51.676;22.650;2023-12-28T08:04:59;23.50;;;8.98;;
72125;SDS011;59999;51.676;22.650;2023-12-28T08:07:24;30.13;;;8.40;;
72125;SDS011;59999;51.676;22.650;2023-12-28T08:09:50;18.90;;;7.38;;
72125;SDS011;59999;51.676;22.650;2023-12-28T08:12:16;21.20;;;8.05;;
72125;SDS011;59999;51.676;22.650;2023-12-28T08:14:43;22.63;;;7.90;;
72125;SDS011;59999;51.676;22.650;2023-12-28T08:17:09;21.13;;;7.80;;
72125;SDS011;59999;51.676;22.650;2023-12-28T08:19:35;23.75;;;9.30;;
72125;SDS011;59999;51.676;22.650;2023-12-28T08:22:01;24.40;;;8.87;;
72125;SDS011;59999;51.676;22.650;2023-12-28T08:24:28;18.73;;;7.10;;
72125;SDS011;59999;51.676;22.650;2023-12-28T08:26:53;21.17;;;8.25;;
72125;SDS011;59999;51.676;22.650;2023-12-28T08:29:20;20.42;;;7.40;;
72125;SDS011;59999;51.676;22.650;2023-12-28T08:31:45;20.52;;;7.78;;
72125;SDS011;59999;51.676;22.650;2023-12-28T08:34:11;21.03;;;7.33;;
72125;SDS011;59999;51.676;22.650;2023-12-28T08:36:37;21.50;;;8.40;;
72125;SDS011;59999;51.676;22.650;2023-12-28T08:39:03;21.27;;;9.27;;
72125;SDS011;59999;51.676;22.650;2023-12-28T08:41:29;25.03;;;8.13;;
72125;SDS011;59999;51.676;22.650;2023-12-28T08:43:55;20.45;;;7.65;;
72125;SDS011;59999;51.676;22.650;2023-12-28T08:46:21;20.92;;;7.63;;
72125;SDS011;59999;51.676;22.650;2023-12-28T08:48:48;17.30;;;7.45;;
72125;SDS011;59999;51.676;22.650;2023-12-28T08:51:13;20.95;;;8.00;;
72125;SDS011;59999;51.676;22.650;2023-12-28T08:53:43;20.80;;;8.00;;
72125;SDS011;59999;51.676;22.650;2023-12-28T08:56:21;18.67;;;6.77;;
72125;SDS011;59999;51.676;22.650;2023-12-28T08:58:48;17.77;;;7.63;;
72125;SDS011;59999;51.676;22.650;2023-12-28T09:01:24;18.90;;;6.70;;
72125;SDS011;59999;51.676;22.650;2023-12-28T09:03:51;15.73;;;6.05;;
72125;SDS011;59999;51.676;22.650;2023-12-28T09:06:18;15.48;;;6.72;;
72125;SDS011;59999;51.676;22.650;2023-12-28T09:08:45;16.43;;;6.53;;
72125;SDS011;59999;51.676;22.650;2023-12-28T09:11:13;16.98;;;5.90;;
72125;SDS011;59999;51.676;22.650;2023-12-28T09:13:39;25.63;;;13.05;;
72125;SDS011;59999;51.676;22.650;2023-12-28T09:16:10;17.80;;;7.95;;
72125;SDS011;59999;51.676;22.650;2023-12-28T09:18:37;15.13;;;5.85;;
72125;SDS011;59999;51.676;22.650;2023-12-28T09:21:03;14.60;;;5.80;;
72125;SDS011;59999;51.676;22.650;2023-12-28T09:23:33;17.38;;;5.75;;
72125;SDS011;59999;51.676;22.650;2023-12-28T09:26:00;15.57;;;6.63;;
72125;SDS011;59999;51.676;22.650;2023-12-28T09:28:29;12.73;;;5.18;;
72125;SDS011;59999;51.676;22.650;2023-12-28T09:30:55;13.15;;;5.43;;
72125;SDS011;59999;51.676;22.650;2023-12-28T09:33:20;15.13;;;5.80;;
72125;SDS011;59999;51.676;22.650;2023-12-28T09:35:46;14.52;;;6.15;;
72125;SDS011;59999;51.676;22.650;2023-12-28T09:38:13;13.43;;;5.17;;
72125;SDS011;59999;51.676;22.650;2023-12-28T09:40:42;15.70;;;5.78;;
72125;SDS011;59999;51.676;22.650;2023-12-28T09:43:24;12.90;;;5.30;;
72125;SDS011;59999;51.676;22.650;2023-12-28T09:45:51;16.70;;;5.88;;
72125;SDS011;59999;51.676;22.650;2023-12-28T09:48:18;13.93;;;5.53;;
72125;SDS011;59999;51.676;22.650;2023-12-28T09:50:45;14.10;;;5.33;;
72125;SDS011;59999;51.676;22.650;2023-12-28T09:53:14;15.23;;;5.55;;
72125;SDS011;59999;51.676;22.650;2023-12-28T09:55:39;12.07;;;4.82;;
72125;SDS011;59999;51.676;22.650;2023-12-28T09:58:05;15.40;;;5.43;;
72125;SDS011;59999;51.676;22.650;2023-12-28T10:00:32;12.43;;;4.53;;
72125;SDS011;59999;51.676;22.650;2023-12-28T10:02:58;12.07;;;4.15;;
72125;SDS011;59999;51.676;22.650;2023-12-28T10:05:23;13.80;;;4.47;;
72125;SDS011;59999;51.676;22.650;2023-12-28T10:07:50;13.18;;;4.70;;
72125;SDS011;59999;51.676;22.650;2023-12-28T10:10:15;13.68;;;5.03;;
72125;SDS011;59999;51.676;22.650;2023-12-28T10:12:42;13.43;;;5.00;;
72125;SDS011;59999;51.676;22.650;2023-12-28T10:15:08;12.90;;;4.90;;
72125;SDS011;59999;51.676;22.650;2023-12-28T10:17:35;12.60;;;4.78;;
72125;SDS011;59999;51.676;22.650;2023-12-28T10:20:01;13.20;;;5.15;;
72125;SDS011;59999;51.676;22.650;2023-12-28T10:22:31;12.18;;;4.72;;
72125;SDS011;59999;51.676;22.650;2023-12-28T10:24:57;11.87;;;4.80;;
72125;SDS011;59999;51.676;22.650;2023-12-28T10:27:27;10.93;;;3.78;;
72125;SDS011;59999;51.676;22.650;2023-12-28T10:29:56;12.15;;;4.40;;
72125;SDS011;59999;51.676;22.650;2023-12-28T10:32:22;13.35;;;5.10;;
72125;SDS011;59999;51.676;22.650;2023-12-28T10:34:53;10.93;;;4.45;;
72125;SDS011;59999;51.676;22.650;2023-12-28T10:37:20;18.70;;;4.97;;
72125;SDS011;59999;51.676;22.650;2023-12-28T10:39:47;15.32;;;5.40;;
72125;SDS011;59999;51.676;22.650;2023-12-28T10:42:28;11.75;;;4.57;;
72125;SDS011;59999;51.676;22.650;2023-12-28T10:45:02;11.85;;;4.70;;
72125;SDS011;59999;51.676;22.650;2023-12-28T10:47:31;14.13;;;5.65;;
72125;SDS011;59999;51.676;22.650;2023-12-28T10:49:59;13.20;;;4.70;;
72125;SDS011;59999;51.676;22.650;2023-12-28T10:52:28;12.93;;;4.82;;
72125;SDS011;59999;51.676;22.650;2023-12-28T10:58:09;14.15;;;5.93;;
72125;SDS011;59999;51.676;22.650;2023-12-28T11:00:41;18.65;;;6.95;;
72125;SDS011;59999;51.676;22.650;2023-12-28T11:03:10;17.13;;;6.83;;
72125;SDS011;59999;51.676;22.650;2023-12-28T11:05:37;17.00;;;7.05;;
72125;SDS011;59999;51.676;22.650;2023-12-28T11:08:06;13.13;;;6.05;;
72125;SDS011;59999;51.676;22.650;2023-12-28T11:10:34;19.42;;;6.20;;
72125;SDS011;59999;51.676;22.650;2023-12-28T11:13:00;14.25;;;5.43;;
72125;SDS011;59999;51.676;22.650;2023-12-28T11:15:26;18.10;;;7.03;;
72125;SDS011;59999;51.676;22.650;2023-12-28T11:17:53;21.52;;;8.88;;
72125;SDS011;59999;51.676;22.650;2023-12-28T11:20:19;19.27;;;7.10;;
72125;SDS011;59999;51.676;22.650;2023-12-28T11:22:46;26.38;;;9.52;;
72125;SDS011;59999;51.676;22.650;2023-12-28T11:25:16;28.23;;;8.98;;
72125;SDS011;59999;51.676;22.650;2023-12-28T11:27:46;26.65;;;9.00;;
72125;SDS011;59999;51.676;22.650;2023-12-28T11:30:12;18.48;;;6.63;;
72125;SDS011;59999;51.676;22.650;2023-12-28T11:32:42;26.93;;;9.30;;
72125;SDS011;59999;51.676;22.650;2023-12-28T11:35:12;23.95;;;8.73;;
72125;SDS011;59999;51.676;22.650;2023-12-28T11:37:45;21.00;;;7.63;;
72125;SDS011;59999;51.676;22.650;2023-12-28T11:40:17;24.55;;;8.32;;
72125;SDS011;59999;51.676;22.650;2023-12-28T11:42:50;22.52;;;7.72;;
72125;SDS011;59999;51.676;22.650;2023-12-28T11:45:21;21.23;;;7.43;;
72125;SDS011;59999;51.676;22.650;2023-12-28T11:47:58;26.08;;;8.32;;
72125;SDS011;59999;51.676;22.650;2023-12-28T11:50:25;33.80;;;13.82;;
72125;SDS011;59999;51.676;22.650;2023-12-28T11:52:51;30.63;;;11.15;;
72125;SDS011;59999;51.676;22.650;2023-12-28T11:55:23;27.17;;;9.13;;
72125;SDS011;59999;51.676;22.650;2023-12-28T11:57:49;21.35;;;7.90;;
72125;SDS011;59999;51.676;22.650;2023-12-28T12:00:15;21.08;;;7.93;;
72125;SDS011;59999;51.676;22.650;2023-12-28T12:02:43;27.87;;;8.77;;
72125;SDS011;59999;51.676;22.650;2023-12-28T12:05:10;20.50;;;8.77;;
72125;SDS011;59999;51.676;22.650;2023-12-28T12:07:37;19.42;;;7.85;;
72125;SDS011;59999;51.676;22.650;2023-12-28T12:10:03;17.80;;;7.15;;
72125;SDS011;59999;51.676;22.650;2023-12-28T12:12:28;23.40;;;8.60;;
72125;SDS011;59999;51.676;22.650;2023-12-28T12:14:55;28.73;;;11.57;;
72125;SDS011;59999;51.676;22.650;2023-12-28T12:17:21;34.30;;;13.80;;
72125;SDS011;59999;51.676;22.650;2023-12-28T12:19:47;28.00;;;9.35;;
72125;SDS011;59999;51.676;22.650;2023-12-28T12:22:16;23.33;;;10.52;;
72125;SDS011;59999;51.676;22.650;2023-12-28T12:24:43;18.63;;;7.60;;
72125;SDS011;59999;51.676;22.650;2023-12-28T12:27:09;30.63;;;14.50;;
72125;SDS011;59999;51.676;22.650;2023-12-28T12:29:35;22.50;;;9.88;;
72125;SDS011;59999;51.676;22.650;2023-12-28T12:32:01;20.37;;;9.07;;
72125;SDS011;59999;51.676;22.650;2023-12-28T12:34:28;19.25;;;7.82;;
72125;SDS011;59999;51.676;22.650;2023-12-28T12:36:54;22.80;;;10.00;;
72125;SDS011;59999;51.676;22.650;2023-12-28T12:39:22;19.55;;;7.95;;
72125;SDS011;59999;51.676;22.650;2023-12-28T12:41:49;20.00;;;9.27;;
72125;SDS011;59999;51.676;22.650;2023-12-28T12:44:15;17.13;;;7.35;;
72125;SDS011;59999;51.676;22.650;2023-12-28T12:46:43;14.82;;;6.13;;
72125;SDS011;59999;51.676;22.650;2023-12-28T12:49:09;30.33;;;10.60;;
72125;SDS011;59999;51.676;22.650;2023-12-28T12:51:35;18.52;;;8.10;;
72125;SDS011;59999;51.676;22.650;2023-12-28T12:54:02;20.60;;;8.07;;
72125;SDS011;59999;51.676;22.650;2023-12-28T12:56:31;15.23;;;6.38;;
72125;SDS011;59999;51.676;22.650;2023-12-28T12:58:57;18.52;;;6.97;;
72125;SDS011;59999;51.676;22.650;2023-12-28T13:01:23;24.02;;;9.45;;
72125;SDS011;59999;51.676;22.650;2023-12-28T13:03:50;19.80;;;7.90;;
72125;SDS011;59999;51.676;22.650;2023-12-28T13:06:16;19.02;;;7.50;;
72125;SDS011;59999;51.676;22.650;2023-12-28T13:08:42;23.90;;;9.77;;
72125;SDS011;59999;51.676;22.650;2023-12-28T13:11:07;18.40;;;7.07;;
72125;SDS011;59999;51.676;22.650;2023-12-28T13:13:34;20.90;;;8.57;;
72125;SDS011;59999;51.676;22.650;2023-12-28T13:16:00;24.08;;;8.55;;
72125;SDS011;59999;51.676;22.650;2023-12-28T13:18:26;16.65;;;6.90;;
72125;SDS011;59999;51.676;22.650;2023-12-28T13:20:52;22.25;;;7.60;;
72125;SDS011;59999;51.676;22.650;2023-12-28T13:23:19;22.58;;;7.40;;
72125;SDS011;59999;51.676;22.650;2023-12-28T13:25:45;18.13;;;6.30;;
72125;SDS011;59999;51.676;22.650;2023-12-28T13:28:11;18.97;;;7.30;;
72125;SDS011;59999;51.676;22.650;2023-12-28T13:30:37;19.88;;;6.97;;
72125;SDS011;59999;51.676;22.650;2023-12-28T13:33:03;17.00;;;6.85;;
72125;SDS011;59999;51.676;22.650;2023-12-28T13:35:30;17.50;;;6.90;;
72125;SDS011;59999;51.676;22.650;2023-12-28T13:37:59;22.65;;;7.82;;
72125;SDS011;59999;51.676;22.650;2023-12-28T13:40:26;16.40;;;6.93;;
72125;SDS011;59999;51.676;22.650;2023-12-28T13:42:53;18.85;;;6.80;;
72125;SDS011;59999;51.676;22.650;2023-12-28T13:45:19;16.35;;;6.90;;
72125;SDS011;59999;51.676;22.650;2023-12-28T13:47:44;17.33;;;7.63;;
72125;SDS011;59999;51.676;22.650;2023-12-28T13:50:10;26.95;;;10.50;;
72125;SDS011;59999;51.676;22.650;2023-12-28T13:52:36;22.67;;;8.88;;
72125;SDS011;59999;51.676;22.650;2023-12-28T13:55:02;25.33;;;11.87;;
72125;SDS011;59999;51.676;22.650;2023-12-28T13:57:28;21.83;;;9.52;;
72125;SDS011;59999;51.676;22.650;2023-12-28T13:59:54;24.23;;;10.27;;
72125;SDS011;59999;51.676;22.650;2023-12-28T14:02:21;24.35;;;11.05;;
72125;SDS011;59999;51.676;22.650;2023-12-28T14:04:47;27.08;;;11.82;;
72125;SDS011;59999;51.676;22.650;2023-12-28T14:07:13;22.97;;;9.47;;
72125;SDS011;59999;51.676;22.650;2023-12-28T14:09:39;21.10;;;8.13;;
72125;SDS011;59999;51.676;22.650;2023-12-28T14:12:05;25.83;;;10.02;;
72125;SDS011;59999;51.676;22.650;2023-12-28T14:14:31;22.43;;;9.23;;
72125;SDS011;59999;51.676;22.650;2023-12-28T14:16:56;27.85;;;10.40;;
72125;SDS011;59999;51.676;22.650;2023-12-28T14:19:22;27.70;;;11.37;;
72125;SDS011;59999;51.676;22.650;2023-12-28T14:21:48;24.35;;;10.52;;
72125;SDS011;59999;51.676;22.650;2023-12-28T14:24:14;29.45;;;12.20;;